sensor_id;sensor_type;location;lat;lon;timestamp;P1;durP1;ratioP1;P2;durP2;ratioP2
18013;SDS011;9132;47.946;10.394;2023-01-24T00:01:08;18.50;;;12.30;;
18013;SDS011;9132;47.946;10.394;2023-01-24T00:03:34;17.33;;;11.93;;
18013;SDS011;9132;47.946;10.394;2023-01-24T00:06:00;17.00;;;12.07;;
18013;SDS011;9132;47.946;10.394;2023-01-24T00:08:26;19.23;;;12.20;;
18013;SDS011;9132;47.946;10.394;2023-01-24T00:10:57;18.47;;;12.00;;
18013;SDS011;9132;47.946;10.394;2023-01-24T00:13:26;18.13;;;11.93;;
18013;SDS011;9132;47.946;10.394;2023-01-24T00:16:00;18.10;;;12.70;;
18013;SDS011;9132;47.946;10.394;2023-01-24T00:18:26;19.53;;;11.80;;
18013;SDS011;9132;47.946;10.394;2023-01-24T00:20:56;18.13;;;11.80;;
18013;SDS011;9132;47.946;10.394;2023-01-24T00:23:25;19.20;;;11.50;;
18013;SDS011;9132;47.946;10.394;2023-01-24T00:25:51;21.27;;;12.67;;
18013;SDS011;9132;47.946;10.394;2023-01-24T00:28:17;20.43;;;12.23;;
18013;SDS011;9132;47.946;10.394;2023-01-24T00:30:45;20.97;;;13.07;;
18013;SDS011;9132;47.946;10.394;2023-01-24T00:33:11;20.77;;;11.70;;
18013;SDS011;9132;47.946;10.394;2023-01-24T00:35:37;17.17;;;11.97;;
18013;SDS011;9132;47.946;10.394;2023-01-24T00:38:04;18.80;;;12.27;;
18013;SDS011;9132;47.946;10.394;2023-01-24T00:40:30;16.93;;;11.57;;
18013;SDS011;9132;47.946;10.394;2023-01-24T00:42:56;18.90;;;11.77;;
18013;SDS011;9132;47.946;10.394;2023-01-24T00:45:22;18.27;;;12.07;;
18013;SDS011;9132;47.946;10.394;2023-01-24T00:47:50;19.57;;;12.23;;
18013;SDS011;9132;47.946;10.394;2023-01-24T00:50:16;20.20;;;12.30;;
18013;SDS011;9132;47.946;10.394;2023-01-24T00:52:42;17.57;;;11.97;;
18013;SDS011;9132;47.946;10.394;2023-01-24T00:55:09;18.27;;;11.67;;
18013;SDS011;9132;47.946;10.394;2023-01-24T00:57:35;19.57;;;12.33;;
18013;SDS011;9132;47.946;10.394;2023-01-24T01:00:01;20.33;;;12.47;;
18013;SDS011;9132;47.946;10.394;2023-01-24T01:02:27;21.17;;;11.13;;
18013;SDS011;9132;47.946;10.394;2023-01-24T01:04:55;19.57;;;11.80;;
18013;SDS011;9132;47.946;10.394;2023-01-24T01:07:21;19.67;;;12.20;;
18013;SDS011;9132;47.946;10.394;2023-01-24T01:09:47;17.47;;;11.47;;
18013;SDS011;9132;47.946;10.394;2023-01-24T01:12:14;19.50;;;11.90;;
18013;SDS011;9132;47.946;10.394;2023-01-24T01:14:40;19.60;;;10.90;;
18013;SDS011;9132;47.946;10.394;2023-01-24T01:17:06;17.10;;;11.10;;
18013;SDS011;9132;47.946;10.394;2023-01-24T01:19:32;17.90;;;11.67;;
18013;SDS011;9132;47.946;10.394;2023-01-24T01:22:00;18.43;;;10.73;;
18013;SDS011;9132;47.946;10.394;2023-01-24T01:24:26;16.57;;;11.30;;
18013;SDS011;9132;47.946;10.394;2023-01-24T01:26:52;17.77;;;11.03;;
18013;SDS011;9132;47.946;10.394;2023-01-24T01:29:19;17.30;;;11.33;;
18013;SDS011;9132;47.946;10.394;2023-01-24T01:31:45;17.20;;;11.40;;
18013;SDS011;9132;47.946;10.394;2023-01-24T01:34:11;14.33;;;10.13;;
18013;SDS011;9132;47.946;10.394;2023-01-24T01:36:37;18.23;;;10.87;;
18013;SDS011;9132;47.946;10.394;2023-01-24T01:39:05;15.93;;;10.67;;
18013;SDS011;9132;47.946;10.394;2023-01-24T01:41:31;17.17;;;10.47;;
18013;SDS011;9132;47.946;10.394;2023-01-24T01:46:56;16.87;;;11.47;;
18013;SDS011;9132;47.946;10.394;2023-01-24T01:49:23;19.93;;;11.93;;
18013;SDS011;9132;47.946;10.394;2023-01-24T01:51:51;19.40;;;11.83;;
18013;SDS011;9132;47.946;10.394;2023-01-24T01:54:20;20.40;;;12.43;;
18013;SDS011;9132;47.946;10.394;2023-01-24T01:56:51;20.43;;;12.87;;
18013;SDS011;9132;47.946;10.394;2023-01-24T01:59:19;19.07;;;12.17;;
18013;SDS011;9132;47.946;10.394;2023-01-24T02:01:47;19.30;;;12.03;;
18013;SDS011;9132;47.946;10.394;2023-01-24T02:04:16;19.00;;;12.30;;
18013;SDS011;9132;47.946;10.394;2023-01-24T02:06:46;17.73;;;12.00;;
18013;SDS011;9132;47.946;10.394;2023-01-24T02:09:14;19.67;;;11.60;;
18013;SDS011;9132;47.946;10.394;2023-01-24T02:11:44;18.03;;;11.57;;
18013;SDS011;9132;47.946;10.394;2023-01-24T02:14:11;16.83;;;11.00;;
18013;SDS011;9132;47.946;10.394;2023-01-24T02:16:56;13.93;;;10.30;;
18013;SDS011;9132;47.946;10.394;2023-01-24T02:19:25;14.93;;;10.07;;
18013;SDS011;9132;47.946;10.394;2023-01-24T02:21:54;17.37;;;10.57;;
18013;SDS011;9132;47.946;10.394;2023-01-24T02:24:23;14.37;;;10.03;;
18013;SDS011;9132;47.946;10.394;2023-01-24T02:26:53;18.83;;;10.80;;
18013;SDS011;9132;47.946;10.394;2023-01-24T02:29:19;15.93;;;10.33;;
18013;SDS011;9132;47.946;10.394;2023-01-24T02:31:52;17.27;;;11.10;;
18013;SDS011;9132;47.946;10.394;2023-01-24T02:34:19;17.20;;;10.20;;
18013;SDS011;9132;47.946;10.394;2023-01-24T02:36:45;16.07;;;10.40;;
18013;SDS011;9132;47.946;10.394;2023-01-24T02:39:12;15.53;;;10.30;;
18013;SDS011;9132;47.946;10.394;2023-01-24T02:41:41;15.80;;;9.47;;
18013;SDS011;9132;47.946;10.394;2023-01-24T02:44:10;16.73;;;10.83;;
18013;SDS011;9132;47.946;10.394;2023-01-24T02:46:38;15.40;;;9.60;;
18013;SDS011;9132;47.946;10.394;2023-01-24T02:49:06;17.27;;;10.47;;
18013;SDS011;9132;47.946;10.394;2023-01-24T02:51:33;14.60;;;9.40;;
18013;SDS011;9132;47.946;10.394;2023-01-24T02:54:16;15.10;;;10.53;;
18013;SDS011;9132;47.946;10.394;2023-01-24T02:56:42;14.83;;;10.03;;
18013;SDS011;9132;47.946;10.394;2023-01-24T02:59:28;15.10;;;9.67;;
18013;SDS011;9132;47.946;10.394;2023-01-24T03:01:54;16.97;;;10.67;;
18013;SDS011;9132;47.946;10.394;2023-01-24T03:04:21;15.73;;;9.50;;
18013;SDS011;9132;47.946;10.394;2023-01-24T03:06:47;16.47;;;10.80;;
18013;SDS011;9132;47.946;10.394;2023-01-24T03:09:14;13.37;;;9.53;;
18013;SDS011;9132;47.946;10.394;2023-01-24T03:11:44;15.37;;;9.90;;
18013;SDS011;9132;47.946;10.394;2023-01-24T03:14:10;16.13;;;10.23;;
18013;SDS011;9132;47.946;10.394;2023-01-24T03:16:56;15.50;;;10.30;;
18013;SDS011;9132;47.946;10.394;2023-01-24T03:19:40;14.97;;;9.83;;
18013;SDS011;9132;47.946;10.394;2023-01-24T03:22:24;14.67;;;8.90;;
18013;SDS011;9132;47.946;10.394;2023-01-24T03:25:08;16.27;;;9.60;;
18013;SDS011;9132;47.946;10.394;2023-01-24T03:27:52;16.83;;;10.30;;
18013;SDS011;9132;47.946;10.394;2023-01-24T03:30:36;18.43;;;11.57;;
18013;SDS011;9132;47.946;10.394;2023-01-24T03:33:21;18.00;;;11.73;;
18013;SDS011;9132;47.946;10.394;2023-01-24T03:36:05;16.27;;;11.00;;
18013;SDS011;9132;47.946;10.394;2023-01-24T03:38:32;15.00;;;10.10;;
18013;SDS011;9132;47.946;10.394;2023-01-24T03:41:16;16.37;;;9.37;;
18013;SDS011;9132;47.946;10.394;2023-01-24T03:43:43;16.13;;;11.07;;
18013;SDS011;9132;47.946;10.394;2023-01-24T03:46:09;17.53;;;11.30;;
18013;SDS011;9132;47.946;10.394;2023-01-24T03:48:37;16.87;;;10.40;;
18013;SDS011;9132;47.946;10.394;2023-01-24T03:51:03;19.23;;;11.37;;
18013;SDS011;9132;47.946;10.394;2023-01-24T03:53:47;17.23;;;9.80;;
18013;SDS011;9132;47.946;10.394;2023-01-24T03:56:14;14.27;;;9.40;;
18013;SDS011;9132;47.946;10.394;2023-01-24T03:58:40;16.73;;;9.47;;
18013;SDS011;9132;47.946;10.394;2023-01-24T04:01:06;14.87;;;10.37;;
18013;SDS011;9132;47.946;10.394;2023-01-24T04:03:32;16.17;;;9.97;;
18013;SDS011;9132;47.946;10.394;2023-01-24T04:06:00;15.90;;;10.27;;
18013;SDS011;9132;47.946;10.394;2023-01-24T04:08:26;18.00;;;11.00;;
18013;SDS011;9132;47.946;10.394;2023-01-24T04:10:54;15.97;;;10.43;;
18013;SDS011;9132;47.946;10.394;2023-01-24T04:13:20;15.63;;;10.73;;
18013;SDS011;9132;47.946;10.394;2023-01-24T04:15:47;16.63;;;11.20;;
18013;SDS011;9132;47.946;10.394;2023-01-24T04:18:13;18.03;;;10.90;;
18013;SDS011;9132;47.946;10.394;2023-01-24T04:20:39;16.83;;;11.10;;
18013;SDS011;9132;47.946;10.394;2023-01-24T04:23:07;18.40;;;11.30;;
18013;SDS011;9132;47.946;10.394;2023-01-24T04:25:33;18.40;;;11.20;;
18013;SDS011;9132;47.946;10.394;2023-01-24T04:28:00;19.47;;;12.33;;
18013;SDS011;9132;47.946;10.394;2023-01-24T04:30:26;31.30;;;19.37;;
18013;SDS011;9132;47.946;10.394;2023-01-24T04:32:53;18.93;;;12.30;;
18013;SDS011;9132;47.946;10.394;2023-01-24T04:35:20;19.03;;;11.37;;
18013;SDS011;9132;47.946;10.394;2023-01-24T04:37:47;16.83;;;11.13;;
18013;SDS011;9132;47.946;10.394;2023-01-24T04:40:15;18.67;;;11.33;;
18013;SDS011;9132;47.946;10.394;2023-01-24T04:42:41;18.60;;;10.83;;
18013;SDS011;9132;47.946;10.394;2023-01-24T04:45:08;17.63;;;10.70;;
18013;SDS011;9132;47.946;10.394;2023-01-24T04:47:34;15.40;;;10.07;;
18013;SDS011;9132;47.946;10.394;2023-01-24T04:50:01;17.73;;;11.50;;
18013;SDS011;9132;47.946;10.394;2023-01-24T04:52:27;15.43;;;10.37;;
18013;SDS011;9132;47.946;10.394;2023-01-24T04:54:53;16.23;;;11.07;;
18013;SDS011;9132;47.946;10.394;2023-01-24T04:57:21;16.03;;;10.10;;
18013;SDS011;9132;47.946;10.394;2023-01-24T04:59:47;18.67;;;11.27;;
18013;SDS011;9132;47.946;10.394;2023-01-24T05:02:13;16.43;;;9.40;;
18013;SDS011;9132;47.946;10.394;2023-01-24T05:04:40;17.93;;;11.37;;
18013;SDS011;9132;47.946;10.394;2023-01-24T05:07:07;14.53;;;9.47;;
18013;SDS011;9132;47.946;10.394;2023-01-24T05:09:33;17.43;;;10.37;;
18013;SDS011;9132;47.946;10.394;2023-01-24T05:11:59;14.97;;;9.57;;
18013;SDS011;9132;47.946;10.394;2023-01-24T05:14:27;16.30;;;10.50;;
18013;SDS011;9132;47.946;10.394;2023-01-24T05:16:53;16.20;;;10.35;;
18013;SDS011;9132;47.946;10.394;2023-01-24T05:19:20;14.60;;;9.37;;
18013;SDS011;9132;47.946;10.394;2023-01-24T05:21:46;15.73;;;10.93;;
18013;SDS011;9132;47.946;10.394;2023-01-24T05:24:12;15.20;;;10.37;;
18013;SDS011;9132;47.946;10.394;2023-01-24T05:26:38;17.00;;;10.77;;
18013;SDS011;9132;47.946;10.394;2023-01-24T05:29:05;17.93;;;10.83;;
18013;SDS011;9132;47.946;10.394;2023-01-24T05:31:32;20.00;;;14.70;;
18013;SDS011;9132;47.946;10.394;2023-01-24T05:33:59;17.43;;;12.20;;
18013;SDS011;9132;47.946;10.394;2023-01-24T05:36:25;20.50;;;12.83;;
18013;SDS011;9132;47.946;10.394;2023-01-24T05:38:51;18.93;;;12.63;;
18013;SDS011;9132;47.946;10.394;2023-01-24T05:41:18;18.10;;;11.93;;
18013;SDS011;9132;47.946;10.394;2023-01-24T05:43:45;19.60;;;12.23;;
18013;SDS011;9132;47.946;10.394;2023-01-24T05:46:12;18.97;;;11.63;;
18013;SDS011;9132;47.946;10.394;2023-01-24T05:48:40;17.60;;;12.00;;
18013;SDS011;9132;47.946;10.394;2023-01-24T05:51:07;18.10;;;11.40;;
18013;SDS011;9132;47.946;10.394;2023-01-24T05:53:35;20.83;;;12.83;;
18013;SDS011;9132;47.946;10.394;2023-01-24T05:56:02;18.67;;;11.77;;
18013;SDS011;9132;47.946;10.394;2023-01-24T05:58:33;17.03;;;10.87;;
18013;SDS011;9132;47.946;10.394;2023-01-24T06:00:59;19.20;;;11.47;;
18013;SDS011;9132;47.946;10.394;2023-01-24T06:03:25;19.00;;;11.33;;
18013;SDS011;9132;47.946;10.394;2023-01-24T06:05:54;18.27;;;12.13;;
18013;SDS011;9132;47.946;10.394;2023-01-24T06:08:20;18.63;;;11.10;;
18013;SDS011;9132;47.946;10.394;2023-01-24T06:10:47;16.43;;;10.80;;
18013;SDS011;9132;47.946;10.394;2023-01-24T06:13:13;17.83;;;10.93;;
18013;SDS011;9132;47.946;10.394;2023-01-24T06:15:39;20.40;;;11.97;;
18013;SDS011;9132;47.946;10.394;2023-01-24T06:18:06;17.47;;;10.93;;
18013;SDS011;9132;47.946;10.394;2023-01-24T06:20:33;16.17;;;10.03;;
18013;SDS011;9132;47.946;10.394;2023-01-24T06:23:02;19.33;;;11.97;;
18013;SDS011;9132;47.946;10.394;2023-01-24T06:25:29;18.13;;;11.17;;
18013;SDS011;9132;47.946;10.394;2023-01-24T06:27:55;17.43;;;11.27;;
18013;SDS011;9132;47.946;10.394;2023-01-24T06:30:22;16.50;;;10.57;;
18013;SDS011;9132;47.946;10.394;2023-01-24T06:32:53;15.10;;;9.27;;
18013;SDS011;9132;47.946;10.394;2023-01-24T06:35:25;13.97;;;8.90;;
18013;SDS011;9132;47.946;10.394;2023-01-24T06:37:52;14.50;;;8.90;;
18013;SDS011;9132;47.946;10.394;2023-01-24T06:40:20;13.07;;;8.63;;
18013;SDS011;9132;47.946;10.394;2023-01-24T06:42:48;13.77;;;8.70;;
18013;SDS011;9132;47.946;10.394;2023-01-24T06:45:15;14.00;;;10.30;;
18013;SDS011;9132;47.946;10.394;2023-01-24T06:47:41;9.90;;;8.03;;
18013;SDS011;9132;47.946;10.394;2023-01-24T06:50:10;11.43;;;6.93;;
18013;SDS011;9132;47.946;10.394;2023-01-24T06:52:38;10.17;;;7.80;;
18013;SDS011;9132;47.946;10.394;2023-01-24T06:55:04;12.27;;;8.27;;
18013;SDS011;9132;47.946;10.394;2023-01-24T06:57:32;9.87;;;7.00;;
18013;SDS011;9132;47.946;10.394;2023-01-24T06:59:58;10.40;;;7.37;;
18013;SDS011;9132;47.946;10.394;2023-01-24T07:02:25;8.80;;;6.00;;
18013;SDS011;9132;47.946;10.394;2023-01-24T07:04:51;7.70;;;5.77;;
18013;SDS011;9132;47.946;10.394;2023-01-24T07:07:17;8.23;;;5.90;;
18013;SDS011;9132;47.946;10.394;2023-01-24T07:09:43;7.10;;;5.97;;
18013;SDS011;9132;47.946;10.394;2023-01-24T07:12:10;7.23;;;6.10;;
18013;SDS011;9132;47.946;10.394;2023-01-24T07:14:37;7.63;;;5.23;;
18013;SDS011;9132;47.946;10.394;2023-01-24T07:17:04;8.03;;;6.17;;
18013;SDS011;9132;47.946;10.394;2023-01-24T07:19:30;9.70;;;7.27;;
18013;SDS011;9132;47.946;10.394;2023-01-24T07:21:57;9.68;;;7.97;;
18013;SDS011;9132;47.946;10.394;2023-01-24T07:24:24;9.73;;;6.90;;
18013;SDS011;9132;47.946;10.394;2023-01-24T07:26:50;7.97;;;6.37;;
18013;SDS011;9132;47.946;10.394;2023-01-24T07:29:18;8.23;;;6.90;;
18013;SDS011;9132;47.946;10.394;2023-01-24T07:31:45;8.87;;;7.00;;
18013;SDS011;9132;47.946;10.394;2023-01-24T07:34:13;10.53;;;7.80;;
18013;SDS011;9132;47.946;10.394;2023-01-24T07:36:40;10.77;;;7.50;;
18013;SDS011;9132;47.946;10.394;2023-01-24T07:39:06;8.40;;;6.40;;
18013;SDS011;9132;47.946;10.394;2023-01-24T07:41:32;8.70;;;6.60;;
18013;SDS011;9132;47.946;10.394;2023-01-24T07:43:59;9.23;;;6.50;;
18013;SDS011;9132;47.946;10.394;2023-01-24T07:46:29;8.40;;;6.83;;
18013;SDS011;9132;47.946;10.394;2023-01-24T07:48:57;10.23;;;6.93;;
18013;SDS011;9132;47.946;10.394;2023-01-24T07:51:23;9.13;;;6.97;;
18013;SDS011;9132;47.946;10.394;2023-01-24T07:53:50;12.67;;;8.00;;
18013;SDS011;9132;47.946;10.394;2023-01-24T07:56:16;14.07;;;9.40;;
18013;SDS011;9132;47.946;10.394;2023-01-24T07:58:42;13.20;;;8.10;;
18013;SDS011;9132;47.946;10.394;2023-01-24T08:01:09;13.23;;;8.97;;
18013;SDS011;9132;47.946;10.394;2023-01-24T08:03:35;20.87;;;12.97;;
18013;SDS011;9132;47.946;10.394;2023-01-24T08:06:04;28.37;;;21.43;;
18013;SDS011;9132;47.946;10.394;2023-01-24T08:08:30;50.27;;;33.20;;
18013;SDS011;9132;47.946;10.394;2023-01-24T08:10:57;17.63;;;11.20;;
18013;SDS011;9132;47.946;10.394;2023-01-24T08:13:23;14.60;;;11.03;;
18013;SDS011;9132;47.946;10.394;2023-01-24T08:15:49;14.23;;;8.73;;
18013;SDS011;9132;47.946;10.394;2023-01-24T08:18:15;14.73;;;9.47;;
18013;SDS011;9132;47.946;10.394;2023-01-24T08:20:42;13.57;;;10.20;;
18013;SDS011;9132;47.946;10.394;2023-01-24T08:23:10;14.23;;;9.83;;
18013;SDS011;9132;47.946;10.394;2023-01-24T08:25:36;12.83;;;9.97;;
18013;SDS011;9132;47.946;10.394;2023-01-24T08:28:02;12.33;;;8.73;;
18013;SDS011;9132;47.946;10.394;2023-01-24T08:30:29;11.83;;;7.77;;
18013;SDS011;9132;47.946;10.394;2023-01-24T08:32:58;10.83;;;7.83;;
18013;SDS011;9132;47.946;10.394;2023-01-24T08:35:25;11.63;;;8.93;;
18013;SDS011;9132;47.946;10.394;2023-01-24T08:37:51;10.90;;;8.40;;
18013;SDS011;9132;47.946;10.394;2023-01-24T08:40:19;12.33;;;8.30;;
18013;SDS011;9132;47.946;10.394;2023-01-24T08:42:45;12.60;;;9.60;;
18013;SDS011;9132;47.946;10.394;2023-01-24T08:45:12;13.63;;;8.60;;
18013;SDS011;9132;47.946;10.394;2023-01-24T08:47:38;12.60;;;8.87;;
18013;SDS011;9132;47.946;10.394;2023-01-24T08:50:05;13.07;;;8.67;;
18013;SDS011;9132;47.946;10.394;2023-01-24T08:52:31;14.83;;;9.37;;
18013;SDS011;9132;47.946;10.394;2023-01-24T08:54:57;12.43;;;8.47;;
18013;SDS011;9132;47.946;10.394;2023-01-24T08:57:25;13.23;;;8.90;;
18013;SDS011;9132;47.946;10.394;2023-01-24T08:59:51;11.10;;;8.47;;
18013;SDS011;9132;47.946;10.394;2023-01-24T09:02:18;12.57;;;8.50;;
18013;SDS011;9132;47.946;10.394;2023-01-24T09:04:44;12.47;;;8.00;;
18013;SDS011;9132;47.946;10.394;2023-01-24T09:07:11;12.17;;;9.57;;
18013;SDS011;9132;47.946;10.394;2023-01-24T09:09:37;15.70;;;11.10;;
18013;SDS011;9132;47.946;10.394;2023-01-24T09:12:03;15.77;;;10.30;;
18013;SDS011;9132;47.946;10.394;2023-01-24T09:14:31;16.47;;;10.37;;
18013;SDS011;9132;47.946;10.394;2023-01-24T09:16:57;16.57;;;10.13;;
18013;SDS011;9132;47.946;10.394;2023-01-24T09:19:24;17.27;;;10.63;;
18013;SDS011;9132;47.946;10.394;2023-01-24T09:21:51;15.93;;;11.13;;
18013;SDS011;9132;47.946;10.394;2023-01-24T09:24:21;24.57;;;15.30;;
18013;SDS011;9132;47.946;10.394;2023-01-24T09:26:47;19.27;;;12.67;;
18013;SDS011;9132;47.946;10.394;2023-01-24T09:29:14;30.53;;;17.23;;
18013;SDS011;9132;47.946;10.394;2023-01-24T09:31:41;21.57;;;15.00;;
18013;SDS011;9132;47.946;10.394;2023-01-24T09:34:08;22.57;;;15.10;;
18013;SDS011;9132;47.946;10.394;2023-01-24T09:36:34;17.77;;;12.03;;
18013;SDS011;9132;47.946;10.394;2023-01-24T09:39:00;19.40;;;11.77;;
18013;SDS011;9132;47.946;10.394;2023-01-24T09:41:30;19.67;;;11.23;;
18013;SDS011;9132;47.946;10.394;2023-01-24T09:44:01;17.00;;;10.77;;
18013;SDS011;9132;47.946;10.394;2023-01-24T09:46:32;17.07;;;10.83;;
18013;SDS011;9132;47.946;10.394;2023-01-24T09:49:05;17.90;;;11.37;;
18013;SDS011;9132;47.946;10.394;2023-01-24T09:51:34;20.70;;;12.70;;
18013;SDS011;9132;47.946;10.394;2023-01-24T09:54:02;19.17;;;11.70;;
18013;SDS011;9132;47.946;10.394;2023-01-24T09:56:33;18.10;;;11.87;;
18013;SDS011;9132;47.946;10.394;2023-01-24T09:59:12;18.37;;;11.27;;
18013;SDS011;9132;47.946;10.394;2023-01-24T10:01:40;19.10;;;11.30;;
18013;SDS011;9132;47.946;10.394;2023-01-24T10:04:11;17.90;;;10.50;;
18013;SDS011;9132;47.946;10.394;2023-01-24T10:06:39;17.17;;;10.97;;
18013;SDS011;9132;47.946;10.394;2023-01-24T10:09:07;15.80;;;9.70;;
18013;SDS011;9132;47.946;10.394;2023-01-24T10:11:39;15.07;;;9.67;;
18013;SDS011;9132;47.946;10.394;2023-01-24T10:14:14;17.80;;;11.07;;
18013;SDS011;9132;47.946;10.394;2023-01-24T10:16:55;16.48;;;10.05;;
18013;SDS011;9132;47.946;10.394;2023-01-24T10:19:27;18.77;;;11.33;;
18013;SDS011;9132;47.946;10.394;2023-01-24T10:22:00;16.63;;;10.33;;
18013;SDS011;9132;47.946;10.394;2023-01-24T10:24:30;15.00;;;10.33;;
18013;SDS011;9132;47.946;10.394;2023-01-24T10:26:57;16.97;;;11.77;;
18013;SDS011;9132;47.946;10.394;2023-01-24T10:29:26;17.23;;;11.37;;
18013;SDS011;9132;47.946;10.394;2023-01-24T10:31:54;17.37;;;10.70;;
18013;SDS011;9132;47.946;10.394;2023-01-24T10:34:26;13.40;;;9.43;;
18013;SDS011;9132;47.946;10.394;2023-01-24T10:36:54;16.00;;;11.00;;
18013;SDS011;9132;47.946;10.394;2023-01-24T10:39:22;16.33;;;10.20;;
18013;SDS011;9132;47.946;10.394;2023-01-24T10:41:49;18.27;;;10.77;;
18013;SDS011;9132;47.946;10.394;2023-01-24T10:44:15;17.47;;;10.17;;
18013;SDS011;9132;47.946;10.394;2023-01-24T10:46:48;17.00;;;10.10;;
18013;SDS011;9132;47.946;10.394;2023-01-24T10:49:17;14.30;;;8.97;;
18013;SDS011;9132;47.946;10.394;2023-01-24T10:51:49;14.73;;;9.77;;
18013;SDS011;9132;47.946;10.394;2023-01-24T10:54:33;15.10;;;10.13;;
18013;SDS011;9132;47.946;10.394;2023-01-24T10:57:09;19.90;;;11.60;;
18013;SDS011;9132;47.946;10.394;2023-01-24T10:59:39;16.40;;;10.53;;
18013;SDS011;9132;47.946;10.394;2023-01-24T11:02:09;20.80;;;14.30;;
18013;SDS011;9132;47.946;10.394;2023-01-24T11:04:44;25.07;;;15.00;;
18013;SDS011;9132;47.946;10.394;2023-01-24T11:07:21;19.83;;;12.47;;
18013;SDS011;9132;47.946;10.394;2023-01-24T11:09:51;17.33;;;11.43;;
18013;SDS011;9132;47.946;10.394;2023-01-24T11:12:18;24.17;;;18.23;;
18013;SDS011;9132;47.946;10.394;2023-01-24T11:14:46;19.57;;;13.20;;
18013;SDS011;9132;47.946;10.394;2023-01-24T11:17:26;14.77;;;10.37;;
18013;SDS011;9132;47.946;10.394;2023-01-24T11:19:56;17.70;;;11.50;;
18013;SDS011;9132;47.946;10.394;2023-01-24T11:22:25;14.33;;;9.57;;
18013;SDS011;9132;47.946;10.394;2023-01-24T11:24:55;15.90;;;9.97;;
18013;SDS011;9132;47.946;10.394;2023-01-24T11:27:21;14.20;;;10.47;;
18013;SDS011;9132;47.946;10.394;2023-01-24T11:30:03;13.67;;;8.67;;
18013;SDS011;9132;47.946;10.394;2023-01-24T11:32:31;11.37;;;7.20;;
18013;SDS011;9132;47.946;10.394;2023-01-24T11:35:00;12.13;;;8.60;;
18013;SDS011;9132;47.946;10.394;2023-01-24T11:37:35;12.47;;;8.63;;
18013;SDS011;9132;47.946;10.394;2023-01-24T11:40:13;11.30;;;8.50;;
18013;SDS011;9132;47.946;10.394;2023-01-24T11:42:43;14.25;;;11.68;;
18013;SDS011;9132;47.946;10.394;2023-01-24T11:45:18;14.20;;;10.63;;
18013;SDS011;9132;47.946;10.394;2023-01-24T11:47:47;14.27;;;10.13;;
18013;SDS011;9132;47.946;10.394;2023-01-24T11:50:25;21.93;;;13.80;;
18013;SDS011;9132;47.946;10.394;2023-01-24T11:52:55;25.00;;;15.93;;
18013;SDS011;9132;47.946;10.394;2023-01-24T11:55:30;18.50;;;10.87;;
18013;SDS011;9132;47.946;10.394;2023-01-24T11:58:04;18.87;;;12.33;;
18013;SDS011;9132;47.946;10.394;2023-01-24T12:00:37;19.27;;;12.37;;
18013;SDS011;9132;47.946;10.394;2023-01-24T12:05:58;16.07;;;10.83;;
18013;SDS011;9132;47.946;10.394;2023-01-24T12:11:10;17.23;;;10.93;;
18013;SDS011;9132;47.946;10.394;2023-01-24T12:13:42;17.73;;;11.03;;
18013;SDS011;9132;47.946;10.394;2023-01-24T12:16:13;16.33;;;11.30;;
18013;SDS011;9132;47.946;10.394;2023-01-24T12:18:44;15.07;;;9.87;;
18013;SDS011;9132;47.946;10.394;2023-01-24T12:21:13;16.27;;;10.43;;
18013;SDS011;9132;47.946;10.394;2023-01-24T12:23:41;15.07;;;10.00;;
18013;SDS011;9132;47.946;10.394;2023-01-24T12:26:12;14.17;;;9.00;;
18013;SDS011;9132;47.946;10.394;2023-01-24T12:28:40;13.63;;;9.33;;
18013;SDS011;9132;47.946;10.394;2023-01-24T12:31:08;14.57;;;10.47;;
18013;SDS011;9132;47.946;10.394;2023-01-24T12:33:39;17.17;;;11.30;;
18013;SDS011;9132;47.946;10.394;2023-01-24T12:36:09;17.17;;;10.70;;
18013;SDS011;9132;47.946;10.394;2023-01-24T12:38:38;16.23;;;10.50;;
18013;SDS011;9132;47.946;10.394;2023-01-24T12:41:07;16.07;;;11.03;;
18013;SDS011;9132;47.946;10.394;2023-01-24T12:43:38;16.97;;;10.17;;
18013;SDS011;9132;47.946;10.394;2023-01-24T12:46:11;13.67;;;9.73;;
18013;SDS011;9132;47.946;10.394;2023-01-24T12:48:42;16.03;;;10.30;;
18013;SDS011;9132;47.946;10.394;2023-01-24T12:51:14;13.80;;;9.20;;
18013;SDS011;9132;47.946;10.394;2023-01-24T12:53:46;11.67;;;8.53;;
18013;SDS011;9132;47.946;10.394;2023-01-24T12:56:17;13.20;;;9.23;;
18013;SDS011;9132;47.946;10.394;2023-01-24T12:58:47;14.43;;;8.63;;
18013;SDS011;9132;47.946;10.394;2023-01-24T13:01:24;13.10;;;8.57;;
18013;SDS011;9132;47.946;10.394;2023-01-24T13:03:58;12.17;;;8.57;;
18013;SDS011;9132;47.946;10.394;2023-01-24T13:06:31;10.97;;;7.43;;
18013;SDS011;9132;47.946;10.394;2023-01-24T13:09:04;11.20;;;7.60;;
18013;SDS011;9132;47.946;10.394;2023-01-24T13:11:35;10.57;;;8.10;;
18013;SDS011;9132;47.946;10.394;2023-01-24T13:14:10;10.90;;;7.40;;
18013;SDS011;9132;47.946;10.394;2023-01-24T13:16:46;11.57;;;7.63;;
18013;SDS011;9132;47.946;10.394;2023-01-24T13:19:17;10.73;;;7.70;;
18013;SDS011;9132;47.946;10.394;2023-01-24T13:21:49;11.03;;;7.23;;
18013;SDS011;9132;47.946;10.394;2023-01-24T13:24:31;10.43;;;8.13;;
18013;SDS011;9132;47.946;10.394;2023-01-24T13:27:10;9.00;;;6.80;;
18013;SDS011;9132;47.946;10.394;2023-01-24T13:29:43;11.27;;;7.80;;
18013;SDS011;9132;47.946;10.394;2023-01-24T13:32:11;12.47;;;7.23;;
18013;SDS011;9132;47.946;10.394;2023-01-24T13:34:40;14.90;;;8.30;;
18013;SDS011;9132;47.946;10.394;2023-01-24T13:37:12;10.43;;;7.70;;
18013;SDS011;9132;47.946;10.394;2023-01-24T13:39:39;11.90;;;8.60;;
18013;SDS011;9132;47.946;10.394;2023-01-24T13:42:18;9.53;;;7.47;;
18013;SDS011;9132;47.946;10.394;2023-01-24T13:44:47;9.67;;;7.40;;
18013;SDS011;9132;47.946;10.394;2023-01-24T13:47:24;10.43;;;7.60;;
18013;SDS011;9132;47.946;10.394;2023-01-24T13:50:10;12.37;;;7.80;;
18013;SDS011;9132;47.946;10.394;2023-01-24T13:52:46;12.40;;;8.70;;
18013;SDS011;9132;47.946;10.394;2023-01-24T14:00:46;19.33;;;12.27;;
18013;SDS011;9132;47.946;10.394;2023-01-24T14:03:15;14.93;;;10.03;;
18013;SDS011;9132;47.946;10.394;2023-01-24T14:05:51;14.23;;;9.90;;
18013;SDS011;9132;47.946;10.394;2023-01-24T14:11:20;12.13;;;7.97;;
18013;SDS011;9132;47.946;10.394;2023-01-24T14:13:55;10.57;;;7.93;;
18013;SDS011;9132;47.946;10.394;2023-01-24T14:19:10;12.43;;;7.93;;
18013;SDS011;9132;47.946;10.394;2023-01-24T14:21:44;12.83;;;8.30;;
18013;SDS011;9132;47.946;10.394;2023-01-24T14:24:15;12.33;;;8.47;;
18013;SDS011;9132;47.946;10.394;2023-01-24T14:26:44;10.33;;;7.90;;
18013;SDS011;9132;47.946;10.394;2023-01-24T14:29:13;12.20;;;9.10;;
18013;SDS011;9132;47.946;10.394;2023-01-24T14:31:40;12.40;;;8.57;;
18013;SDS011;9132;47.946;10.394;2023-01-24T14:34:11;13.63;;;8.70;;
18013;SDS011;9132;47.946;10.394;2023-01-24T14:36:39;15.93;;;11.30;;
18013;SDS011;9132;47.946;10.394;2023-01-24T14:41:53;11.60;;;8.90;;
18013;SDS011;9132;47.946;10.394;2023-01-24T14:44:21;10.77;;;7.53;;
18013;SDS011;9132;47.946;10.394;2023-01-24T14:46:52;11.27;;;8.20;;
18013;SDS011;9132;47.946;10.394;2023-01-24T14:49:25;9.93;;;7.60;;
18013;SDS011;9132;47.946;10.394;2023-01-24T14:51:52;10.03;;;7.17;;
18013;SDS011;9132;47.946;10.394;2023-01-24T14:54:20;11.47;;;7.80;;
18013;SDS011;9132;47.946;10.394;2023-01-24T14:56:46;13.20;;;8.13;;
18013;SDS011;9132;47.946;10.394;2023-01-24T14:59:12;16.33;;;9.00;;
18013;SDS011;9132;47.946;10.394;2023-01-24T15:01:39;13.27;;;9.30;;